sensor_id;sensor_type;location;lat;lon;timestamp;temperature;humidity
47757;SHT35;22147;52.388;13.390;2023-07-28T00:00:43;16.63;95.48
47757;SHT35;22147;52.388;13.390;2023-07-28T00:03:13;16.61;95.43
47757;SHT35;22147;52.388;13.390;2023-07-28T00:05:43;16.61;95.42
47757;SHT35;22147;52.388;13.390;2023-07-28T00:08:13;16.66;95.46
47757;SHT35;22147;52.388;13.390;2023-07-28T00:10:43;16.73;95.37
47757;SHT35;22147;52.388;13.390;2023-07-28T00:13:13;16.67;95.32
47757;SHT35;22147;52.388;13.390;2023-07-28T00:15:43;16.69;95.37
47757;SHT35;22147;52.388;13.390;2023-07-28T00:18:13;16.73;95.32
47757;SHT35;22147;52.388;13.390;2023-07-28T00:20:42;16.76;95.28
47757;SHT35;22147;52.388;13.390;2023-07-28T00:23:12;16.71;95.24
47757;SHT35;22147;52.388;13.390;2023-07-28T00:25:42;16.70;95.29
47757;SHT35;22147;52.388;13.390;2023-07-28T00:28:12;16.76;95.34
47757;SHT35;22147;52.388;13.390;2023-07-28T00:30:43;16.79;95.23
47757;SHT35;22147;52.388;13.390;2023-07-28T00:33:13;16.74;95.18
47757;SHT35;22147;52.388;13.390;2023-07-28T00:35:43;16.73;95.23
47757;SHT35;22147;52.388;13.390;2023-07-28T00:38:13;16.76;95.26
47757;SHT35;22147;52.388;13.390;2023-07-28T00:40:43;16.77;95.23
47757;SHT35;22147;52.388;13.390;2023-07-28T00:43:13;16.79;95.30
47757;SHT35;22147;52.388;13.390;2023-07-28T00:45:44;16.77;95.28
47757;SHT35;22147;52.388;13.390;2023-07-28T00:48:17;16.81;95.29
47757;SHT35;22147;52.388;13.390;2023-07-28T00:50:49;16.77;95.30
47757;SHT35;22147;52.388;13.390;2023-07-28T00:53:21;16.80;95.32
47757;SHT35;22147;52.388;13.390;2023-07-28T00:55:52;16.83;95.35
47757;SHT35;22147;52.388;13.390;2023-07-28T00:58:22;16.83;95.34
47757;SHT35;22147;52.388;13.390;2023-07-28T01:00:52;16.90;95.39
47757;SHT35;22147;52.388;13.390;2023-07-28T01:03:24;16.88;95.34
47757;SHT35;22147;52.388;13.390;2023-07-28T01:06:32;16.97;95.39
47757;SHT35;22147;52.388;13.390;2023-07-28T01:09:22;16.94;95.24
47757;SHT35;22147;52.388;13.390;2023-07-28T01:11:58;16.91;95.22
47757;SHT35;22147;52.388;13.390;2023-07-28T01:14:30;16.92;95.26
47757;SHT35;22147;52.388;13.390;2023-07-28T01:17:00;16.92;95.22
47757;SHT35;22147;52.388;13.390;2023-07-28T01:19:31;16.97;95.30
47757;SHT35;22147;52.388;13.390;2023-07-28T01:28:25;17.07;95.18
47757;SHT35;22147;52.388;13.390;2023-07-28T01:30:57;17.02;95.05
47757;SHT35;22147;52.388;13.390;2023-07-28T01:33:28;17.02;95.05
47757;SHT35;22147;52.388;13.390;2023-07-28T01:35:59;17.01;95.09
47757;SHT35;22147;52.388;13.390;2023-07-28T01:38:30;17.04;95.11
47757;SHT35;22147;52.388;13.390;2023-07-28T01:40:58;17.01;95.11
47757;SHT35;22147;52.388;13.390;2023-07-28T01:43:26;17.04;95.09
47757;SHT35;22147;52.388;13.390;2023-07-28T01:45:55;17.05;95.18
47757;SHT35;22147;52.388;13.390;2023-07-28T01:48:23;17.08;95.14
47757;SHT35;22147;52.388;13.390;2023-07-28T01:50:52;17.14;95.17
47757;SHT35;22147;52.388;13.390;2023-07-28T01:53:20;17.18;95.14
47757;SHT35;22147;52.388;13.390;2023-07-28T01:55:48;17.15;95.04
47757;SHT35;22147;52.388;13.390;2023-07-28T01:58:17;17.19;94.97
47757;SHT35;22147;52.388;13.390;2023-07-28T02:00:45;17.22;94.96
47757;SHT35;22147;52.388;13.390;2023-07-28T02:03:14;17.22;94.95
47757;SHT35;22147;52.388;13.390;2023-07-28T02:05:42;17.19;94.91
47757;SHT35;22147;52.388;13.390;2023-07-28T02:08:14;17.19;94.88
47757;SHT35;22147;52.388;13.390;2023-07-28T02:10:44;17.31;94.81
47757;SHT35;22147;52.388;13.390;2023-07-28T02:13:15;17.31;94.70
47757;SHT35;22147;52.388;13.390;2023-07-28T02:15:45;17.27;94.61
47757;SHT35;22147;52.388;13.390;2023-07-28T02:18:15;17.29;94.61
47757;SHT35;22147;52.388;13.390;2023-07-28T02:20:48;17.28;94.61
47757;SHT35;22147;52.388;13.390;2023-07-28T02:23:19;17.29;94.63
47757;SHT35;22147;52.388;13.390;2023-07-28T02:25:50;17.27;94.63
47757;SHT35;22147;52.388;13.390;2023-07-28T02:28:20;17.36;94.64
47757;SHT35;22147;52.388;13.390;2023-07-28T02:30:51;17.34;94.61
47757;SHT35;22147;52.388;13.390;2023-07-28T02:33:21;17.29;94.50
47757;SHT35;22147;52.388;13.390;2023-07-28T02:35:52;17.27;94.60
47757;SHT35;22147;52.388;13.390;2023-07-28T02:38:22;17.31;94.68
47757;SHT35;22147;52.388;13.390;2023-07-28T02:40:53;17.32;94.64
47757;SHT35;22147;52.388;13.390;2023-07-28T02:43:23;17.28;94.65
47757;SHT35;22147;52.388;13.390;2023-07-28T02:45:56;17.25;94.65
47757;SHT35;22147;52.388;13.390;2023-07-28T02:48:26;17.28;94.70
47757;SHT35;22147;52.388;13.390;2023-07-28T02:50:57;17.32;94.77
47757;SHT35;22147;52.388;13.390;2023-07-28T02:53:27;17.29;94.67
47757;SHT35;22147;52.388;13.390;2023-07-28T02:55:57;17.34;94.71
47757;SHT35;22147;52.388;13.390;2023-07-28T02:58:27;17.34;94.68
47757;SHT35;22147;52.388;13.390;2023-07-28T03:00:58;17.32;94.60
47757;SHT35;22147;52.388;13.390;2023-07-28T03:03:28;17.35;94.53
47757;SHT35;22147;52.388;13.390;2023-07-28T03:05:58;17.36;94.55
47757;SHT35;22147;52.388;13.390;2023-07-28T03:08:28;17.32;94.51
47757;SHT35;22147;52.388;13.390;2023-07-28T03:11:00;17.29;94.54
47757;SHT35;22147;52.388;13.390;2023-07-28T03:13:32;17.28;94.59
47757;SHT35;22147;52.388;13.390;2023-07-28T03:16:02;17.32;94.65
47757;SHT35;22147;52.388;13.390;2023-07-28T03:18:33;17.36;94.48
47757;SHT35;22147;52.388;13.390;2023-07-28T03:21:03;17.38;94.59
47757;SHT35;22147;52.388;13.390;2023-07-28T03:23:33;17.38;94.39
47757;SHT35;22147;52.388;13.390;2023-07-28T03:26:03;17.36;94.40
47757;SHT35;22147;52.388;13.390;2023-07-28T03:28:32;17.35;94.41
47757;SHT35;22147;52.388;13.390;2023-07-28T03:31:01;17.46;94.51
47757;SHT35;22147;52.388;13.390;2023-07-28T03:33:29;17.50;94.01
47757;SHT35;22147;52.388;13.390;2023-07-28T03:35:57;17.49;93.93
47757;SHT35;22147;52.388;13.390;2023-07-28T03:38:26;17.42;93.93
47757;SHT35;22147;52.388;13.390;2023-07-28T03:40:54;17.48;93.93
47757;SHT35;22147;52.388;13.390;2023-07-28T03:43:23;17.45;93.80
47757;SHT35;22147;52.388;13.390;2023-07-28T03:45:51;17.46;93.91
47757;SHT35;22147;52.388;13.390;2023-07-28T03:48:20;17.48;93.79
47757;SHT35;22147;52.388;13.390;2023-07-28T03:50:48;17.50;93.72
47757;SHT35;22147;52.388;13.390;2023-07-28T03:53:16;17.59;93.56
47757;SHT35;22147;52.388;13.390;2023-07-28T03:55:45;17.52;93.49
47757;SHT35;22147;52.388;13.390;2023-07-28T03:58:13;17.53;93.55
47757;SHT35;22147;52.388;13.390;2023-07-28T04:00:42;17.60;93.48
47757;SHT35;22147;52.388;13.390;2023-07-28T04:03:12;17.56;93.35
47757;SHT35;22147;52.388;13.390;2023-07-28T04:05:40;17.57;93.29
47757;SHT35;22147;52.388;13.390;2023-07-28T04:08:09;17.57;93.22
47757;SHT35;22147;52.388;13.390;2023-07-28T04:10:37;17.63;93.08
47757;SHT35;22147;52.388;13.390;2023-07-28T04:13:06;17.63;93.13
47757;SHT35;22147;52.388;13.390;2023-07-28T04:15:34;17.65;93.04
47757;SHT35;22147;52.388;13.390;2023-07-28T04:18:03;17.62;93.03
47757;SHT35;22147;52.388;13.390;2023-07-28T04:20:31;17.74;92.92
47757;SHT35;22147;52.388;13.390;2023-07-28T04:23:00;17.83;92.43
47757;SHT35;22147;52.388;13.390;2023-07-28T04:25:28;17.81;92.47
47757;SHT35;22147;52.388;13.390;2023-07-28T04:27:56;17.81;92.37
47757;SHT35;22147;52.388;13.390;2023-07-28T04:30:25;17.77;92.55
47757;SHT35;22147;52.388;13.390;2023-07-28T04:32:53;17.78;92.68
47757;SHT35;22147;52.388;13.390;2023-07-28T04:35:21;17.77;92.83
47757;SHT35;22147;52.388;13.390;2023-07-28T04:37:50;17.73;92.85
47757;SHT35;22147;52.388;13.390;2023-07-28T04:40:19;17.78;92.69
47757;SHT35;22147;52.388;13.390;2023-07-28T04:42:47;17.80;92.73
47757;SHT35;22147;52.388;13.390;2023-07-28T04:45:18;17.77;92.82
47757;SHT35;22147;52.388;13.390;2023-07-28T04:47:47;17.78;92.95
47757;SHT35;22147;52.388;13.390;2023-07-28T04:50:15;17.91;92.93
47757;SHT35;22147;52.388;13.390;2023-07-28T04:52:43;17.86;92.60
47757;SHT35;22147;52.388;13.390;2023-07-28T04:55:12;17.87;92.74
47757;SHT35;22147;52.388;13.390;2023-07-28T04:57:40;17.80;92.72
47757;SHT35;22147;52.388;13.390;2023-07-28T05:00:11;17.84;92.88
47757;SHT35;22147;52.388;13.390;2023-07-28T05:02:42;17.81;93.08
47757;SHT35;22147;52.388;13.390;2023-07-28T05:05:12;17.88;92.96
47757;SHT35;22147;52.388;13.390;2023-07-28T05:07:42;17.93;93.13
47757;SHT35;22147;52.388;13.390;2023-07-28T05:10:12;17.96;92.83
47757;SHT35;22147;52.388;13.390;2023-07-28T05:12:40;17.91;92.95
47757;SHT35;22147;52.388;13.390;2023-07-28T05:15:09;18.01;92.94
47757;SHT35;22147;52.388;13.390;2023-07-28T05:17:40;18.04;92.90
47757;SHT35;22147;52.388;13.390;2023-07-28T05:20:09;18.04;92.97
47757;SHT35;22147;52.388;13.390;2023-07-28T05:22:36;18.14;92.83
47757;SHT35;22147;52.388;13.390;2023-07-28T05:25:07;18.14;92.41
47757;SHT35;22147;52.388;13.390;2023-07-28T05:27:35;18.18;92.51
47757;SHT35;22147;52.388;13.390;2023-07-28T05:30:04;18.20;92.50
47757;SHT35;22147;52.388;13.390;2023-07-28T05:32:34;18.21;92.21
47757;SHT35;22147;52.388;13.390;2023-07-28T05:35:03;18.24;92.25
47757;SHT35;22147;52.388;13.390;2023-07-28T05:37:33;18.25;92.27
47757;SHT35;22147;52.388;13.390;2023-07-28T05:40:02;18.21;92.43
47757;SHT35;22147;52.388;13.390;2023-07-28T05:42:30;18.22;92.24
47757;SHT35;22147;52.388;13.390;2023-07-28T05:45:00;18.27;92.22
47757;SHT35;22147;52.388;13.390;2023-07-28T05:47:28;18.25;91.99
47757;SHT35;22147;52.388;13.390;2023-07-28T05:49:56;18.24;91.87
47757;SHT35;22147;52.388;13.390;2023-07-28T05:52:25;18.18;92.07
47757;SHT35;22147;52.388;13.390;2023-07-28T05:54:53;18.24;91.91
47757;SHT35;22147;52.388;13.390;2023-07-28T05:57:21;18.21;91.69
47757;SHT35;22147;52.388;13.390;2023-07-28T05:59:50;18.24;91.78
47757;SHT35;22147;52.388;13.390;2023-07-28T06:02:20;18.31;91.92
47757;SHT35;22147;52.388;13.390;2023-07-28T06:04:47;18.31;91.77
47757;SHT35;22147;52.388;13.390;2023-07-28T06:07:15;18.24;91.86
47757;SHT35;22147;52.388;13.390;2023-07-28T06:09:44;18.25;91.77
47757;SHT35;22147;52.388;13.390;2023-07-28T06:12:12;18.25;91.83
47757;SHT35;22147;52.388;13.390;2023-07-28T06:14:41;18.28;91.82
47757;SHT35;22147;52.388;13.390;2023-07-28T06:17:09;18.35;91.68
47757;SHT35;22147;52.388;13.390;2023-07-28T06:19:38;18.35;91.66
47757;SHT35;22147;52.388;13.390;2023-07-28T06:22:06;18.42;91.28
47757;SHT35;22147;52.388;13.390;2023-07-28T06:24:35;18.41;91.42
47757;SHT35;22147;52.388;13.390;2023-07-28T06:27:04;18.46;91.72
47757;SHT35;22147;52.388;13.390;2023-07-28T06:29:37;18.57;91.93
47757;SHT35;22147;52.388;13.390;2023-07-28T06:32:08;18.69;91.19
47757;SHT35;22147;52.388;13.390;2023-07-28T06:34:38;18.75;90.96
47757;SHT35;22147;52.388;13.390;2023-07-28T06:37:07;18.79;90.62
47757;SHT35;22147;52.388;13.390;2023-07-28T06:39:37;18.84;90.03
47757;SHT35;22147;52.388;13.390;2023-07-28T06:42:08;18.84;90.38
47757;SHT35;22147;52.388;13.390;2023-07-28T06:44:38;18.96;90.23
47757;SHT35;22147;52.388;13.390;2023-07-28T06:47:08;19.07;90.32
47757;SHT35;22147;52.388;13.390;2023-07-28T06:49:37;19.21;89.62
47757;SHT35;22147;52.388;13.390;2023-07-28T06:52:08;19.24;89.72
47757;SHT35;22147;52.388;13.390;2023-07-28T06:54:38;19.35;88.87
47757;SHT35;22147;52.388;13.390;2023-07-28T06:57:08;19.47;88.47
47757;SHT35;22147;52.388;13.390;2023-07-28T06:59:38;19.61;88.70
47757;SHT35;22147;52.388;13.390;2023-07-28T07:02:07;19.68;87.73
47757;SHT35;22147;52.388;13.390;2023-07-28T07:04:35;19.76;86.53
47757;SHT35;22147;52.388;13.390;2023-07-28T07:07:04;19.72;86.89
47757;SHT35;22147;52.388;13.390;2023-07-28T07:09:32;19.58;86.25
47757;SHT35;22147;52.388;13.390;2023-07-28T07:12:00;19.47;87.15
47757;SHT35;22147;52.388;13.390;2023-07-28T07:14:29;19.55;87.24
47757;SHT35;22147;52.388;13.390;2023-07-28T07:16:57;19.55;86.81
47757;SHT35;22147;52.388;13.390;2023-07-28T07:19:28;19.61;87.13
47757;SHT35;22147;52.388;13.390;2023-07-28T07:21:57;19.65;86.77
47757;SHT35;22147;52.388;13.390;2023-07-28T07:24:26;19.71;86.41
47757;SHT35;22147;52.388;13.390;2023-07-28T07:26:54;19.65;86.98
47757;SHT35;22147;52.388;13.390;2023-07-28T07:29:22;19.65;86.63
47757;SHT35;22147;52.388;13.390;2023-07-28T07:31:51;19.58;87.24
47757;SHT35;22147;52.388;13.390;2023-07-28T07:34:24;19.54;86.85
47757;SHT35;22147;52.388;13.390;2023-07-28T07:36:54;19.54;86.40
47757;SHT35;22147;52.388;13.390;2023-07-28T07:39:26;19.48;86.74
47757;SHT35;22147;52.388;13.390;2023-07-28T07:41:57;19.54;86.61
47757;SHT35;22147;52.388;13.390;2023-07-28T07:44:26;19.47;87.42
47757;SHT35;22147;52.388;13.390;2023-07-28T07:46:55;19.54;86.88
47757;SHT35;22147;52.388;13.390;2023-07-28T07:49:25;19.57;87.02
47757;SHT35;22147;52.388;13.390;2023-07-28T07:51:54;19.61;86.76
47757;SHT35;22147;52.388;13.390;2023-07-28T07:54:22;19.68;86.76
47757;SHT35;22147;52.388;13.390;2023-07-28T07:56:51;19.83;87.68
47757;SHT35;22147;52.388;13.390;2023-07-28T07:59:19;20.13;86.55
47757;SHT35;22147;52.388;13.390;2023-07-28T08:01:47;20.34;85.73
47757;SHT35;22147;52.388;13.390;2023-07-28T08:04:16;20.52;85.07
47757;SHT35;22147;52.388;13.390;2023-07-28T08:06:44;20.63;84.83
47757;SHT35;22147;52.388;13.390;2023-07-28T08:09:13;20.65;83.87
47757;SHT35;22147;52.388;13.390;2023-07-28T08:11:41;20.65;83.52
47757;SHT35;22147;52.388;13.390;2023-07-28T08:14:09;20.69;83.33
47757;SHT35;22147;52.388;13.390;2023-07-28T08:16:38;20.48;82.81
47757;SHT35;22147;52.388;13.390;2023-07-28T08:19:06;20.64;84.15
47757;SHT35;22147;52.388;13.390;2023-07-28T08:21:35;20.98;83.89
47757;SHT35;22147;52.388;13.390;2023-07-28T08:24:04;21.32;82.39
47757;SHT35;22147;52.388;13.390;2023-07-28T08:26:32;21.59;81.55
47757;SHT35;22147;52.388;13.390;2023-07-28T08:29:00;22.10;79.67
47757;SHT35;22147;52.388;13.390;2023-07-28T08:31:29;22.29;76.62
47757;SHT35;22147;52.388;13.390;2023-07-28T08:33:57;22.22;75.45
47757;SHT35;22147;52.388;13.390;2023-07-28T08:36:25;22.02;76.35
47757;SHT35;22147;52.388;13.390;2023-07-28T08:38:54;22.21;76.85
47757;SHT35;22147;52.388;13.390;2023-07-28T08:41:22;22.42;75.95
47757;SHT35;22147;52.388;13.390;2023-07-28T08:43:53;22.48;76.36
47757;SHT35;22147;52.388;13.390;2023-07-28T08:46:24;22.46;75.48
47757;SHT35;22147;52.388;13.390;2023-07-28T08:48:54;22.21;76.74
47757;SHT35;22147;52.388;13.390;2023-07-28T08:51:24;21.94;77.31
47757;SHT35;22147;52.388;13.390;2023-07-28T08:53:54;21.67;78.83
47757;SHT35;22147;52.388;13.390;2023-07-28T08:56:24;21.78;79.31
47757;SHT35;22147;52.388;13.390;2023-07-28T08:58:59;22.12;78.60
47757;SHT35;22147;52.388;13.390;2023-07-28T09:01:29;22.38;77.80
47757;SHT35;22147;52.388;13.390;2023-07-28T09:04:00;22.58;78.15
47757;SHT35;22147;52.388;13.390;2023-07-28T09:06:30;22.73;74.50
47757;SHT35;22147;52.388;13.390;2023-07-28T09:09:01;22.86;75.19
47757;SHT35;22147;52.388;13.390;2023-07-28T09:11:31;22.66;75.14
47757;SHT35;22147;52.388;13.390;2023-07-28T09:14:01;22.46;75.95
47757;SHT35;22147;52.388;13.390;2023-07-28T09:16:32;22.28;76.09
47757;SHT35;22147;52.388;13.390;2023-07-28T09:19:08;22.05;76.49
47757;SHT35;22147;52.388;13.390;2023-07-28T09:21:42;21.80;78.16
47757;SHT35;22147;52.388;13.390;2023-07-28T09:24:13;21.50;79.83
47757;SHT35;22147;52.388;13.390;2023-07-28T09:26:47;21.30;81.60
47757;SHT35;22147;52.388;13.390;2023-07-28T09:29:20;21.11;82.58
47757;SHT35;22147;52.388;13.390;2023-07-28T09:31:50;20.92;83.61
47757;SHT35;22147;52.388;13.390;2023-07-28T09:34:27;20.85;83.52
47757;SHT35;22147;52.388;13.390;2023-07-28T09:36:59;20.74;84.42
47757;SHT35;22147;52.388;13.390;2023-07-28T09:39:33;20.58;85.30
47757;SHT35;22147;52.388;13.390;2023-07-28T09:42:07;20.41;85.37
47757;SHT35;22147;52.388;13.390;2023-07-28T09:44:39;20.36;86.00
47757;SHT35;22147;52.388;13.390;2023-07-28T09:47:09;20.30;86.16
47757;SHT35;22147;52.388;13.390;2023-07-28T09:49:48;20.30;85.95
47757;SHT35;22147;52.388;13.390;2023-07-28T09:52:25;20.24;85.79
47757;SHT35;22147;52.388;13.390;2023-07-28T09:55:07;20.37;86.86
47757;SHT35;22147;52.388;13.390;2023-07-28T09:57:52;20.50;86.64
47757;SHT35;22147;52.388;13.390;2023-07-28T10:00:24;20.58;85.29
47757;SHT35;22147;52.388;13.390;2023-07-28T10:03:00;20.55;85.49
47757;SHT35;22147;52.388;13.390;2023-07-28T10:05:33;20.60;85.30
47757;SHT35;22147;52.388;13.390;2023-07-28T10:08:06;20.69;85.14
47757;SHT35;22147;52.388;13.390;2023-07-28T10:10:36;20.74;85.41
47757;SHT35;22147;52.388;13.390;2023-07-28T10:13:20;20.78;84.84
47757;SHT35;22147;52.388;13.390;2023-07-28T10:15:51;20.85;84.73
47757;SHT35;22147;52.388;13.390;2023-07-28T10:18:21;21.08;84.69
47757;SHT35;22147;52.388;13.390;2023-07-28T10:20:52;21.59;84.77
47757;SHT35;22147;52.388;13.390;2023-07-28T10:23:24;21.81;82.26
47757;SHT35;22147;52.388;13.390;2023-07-28T10:26:00;22.01;81.99
47757;SHT35;22147;52.388;13.390;2023-07-28T10:28:39;22.17;80.06
47757;SHT35;22147;52.388;13.390;2023-07-28T10:31:11;22.26;80.30
47757;SHT35;22147;52.388;13.390;2023-07-28T10:33:45;22.36;80.25
47757;SHT35;22147;52.388;13.390;2023-07-28T10:36:34;22.48;78.53
47757;SHT35;22147;52.388;13.390;2023-07-28T10:41:38;22.63;77.29
47757;SHT35;22147;52.388;13.390;2023-07-28T10:44:08;22.84;74.83
47757;SHT35;22147;52.388;13.390;2023-07-28T10:46:39;22.91;76.40
47757;SHT35;22147;52.388;13.390;2023-07-28T10:49:09;23.17;75.50
47757;SHT35;22147;52.388;13.390;2023-07-28T10:51:40;23.31;74.73
47757;SHT35;22147;52.388;13.390;2023-07-28T10:54:10;23.08;74.05
47757;SHT35;22147;52.388;13.390;2023-07-28T10:56:47;23.08;75.74
47757;SHT35;22147;52.388;13.390;2023-07-28T10:59:18;22.94;74.88
47757;SHT35;22147;52.388;13.390;2023-07-28T11:01:48;22.89;74.75
47757;SHT35;22147;52.388;13.390;2023-07-28T11:04:20;23.16;75.39
47757;SHT35;22147;52.388;13.390;2023-07-28T11:06:50;23.34;73.92
47757;SHT35;22147;52.388;13.390;2023-07-28T11:09:23;23.49;72.63
47757;SHT35;22147;52.388;13.390;2023-07-28T11:11:53;23.31;72.16
47757;SHT35;22147;52.388;13.390;2023-07-28T11:14:24;23.44;71.87
47757;SHT35;22147;52.388;13.390;2023-07-28T11:16:55;23.48;70.34
47757;SHT35;22147;52.388;13.390;2023-07-28T11:19:22;23.44;70.07
47757;SHT35;22147;52.388;13.390;2023-07-28T11:21:55;23.31;70.96
47757;SHT35;22147;52.388;13.390;2023-07-28T11:24:23;23.37;71.18
47757;SHT35;22147;52.388;13.390;2023-07-28T11:26:52;23.49;70.79
47757;SHT35;22147;52.388;13.390;2023-07-28T11:29:21;23.58;69.44
47757;SHT35;22147;52.388;13.390;2023-07-28T11:31:50;23.82;69.68
47757;SHT35;22147;52.388;13.390;2023-07-28T11:34:19;24.24;70.22
47757;SHT35;22147;52.388;13.390;2023-07-28T11:36:48;24.78;68.35
47757;SHT35;22147;52.388;13.390;2023-07-28T11:39:17;25.03;67.23
47757;SHT35;22147;52.388;13.390;2023-07-28T11:41:51;25.02;64.90
47757;SHT35;22147;52.388;13.390;2023-07-28T11:44:23;24.74;66.22
47757;SHT35;22147;52.388;13.390;2023-07-28T11:46:54;24.57;65.35
47757;SHT35;22147;52.388;13.390;2023-07-28T11:49:25;24.37;65.92
47757;SHT35;22147;52.388;13.390;2023-07-28T11:51:55;24.44;65.74
47757;SHT35;22147;52.388;13.390;2023-07-28T11:54:29;24.59;65.81
47757;SHT35;22147;52.388;13.390;2023-07-28T11:56:58;24.80;67.43
47757;SHT35;22147;52.388;13.390;2023-07-28T11:59:28;25.11;65.64
47757;SHT35;22147;52.388;13.390;2023-07-28T12:02:01;25.09;63.51
47757;SHT35;22147;52.388;13.390;2023-07-28T12:04:38;24.99;64.90
47757;SHT35;22147;52.388;13.390;2023-07-28T12:07:16;24.85;65.98
47757;SHT35;22147;52.388;13.390;2023-07-28T12:09:50;24.80;66.63
47757;SHT35;22147;52.388;13.390;2023-07-28T12:12:30;24.65;65.97
47757;SHT35;22147;52.388;13.390;2023-07-28T12:15:30;24.57;69.21
47757;SHT35;22147;52.388;13.390;2023-07-28T12:18:15;24.26;70.35
47757;SHT35;22147;52.388;13.390;2023-07-28T12:20:53;23.78;71.36
47757;SHT35;22147;52.388;13.390;2023-07-28T12:23:23;23.44;72.70
47757;SHT35;22147;52.388;13.390;2023-07-28T12:25:56;23.23;73.46
47757;SHT35;22147;52.388;13.390;2023-07-28T12:28:28;22.97;74.10
47757;SHT35;22147;52.388;13.390;2023-07-28T12:30:56;22.86;74.89
47757;SHT35;22147;52.388;13.390;2023-07-28T12:33:28;22.76;74.37
47757;SHT35;22147;52.388;13.390;2023-07-28T12:35:59;22.86;75.16
47757;SHT35;22147;52.388;13.390;2023-07-28T12:38:46;23.16;75.36
47757;SHT35;22147;52.388;13.390;2023-07-28T12:41:15;23.18;73.75
47757;SHT35;22147;52.388;13.390;2023-07-28T12:43:51;22.96;74.49
47757;SHT35;22147;52.388;13.390;2023-07-28T12:46:24;22.68;76.85
47757;SHT35;22147;52.388;13.390;2023-07-28T12:48:55;22.31;79.87
47757;SHT35;22147;52.388;13.390;2023-07-28T12:51:28;21.88;81.69
47757;SHT35;22147;52.388;13.390;2023-07-28T12:54:18;21.57;83.37
47757;SHT35;22147;52.388;13.390;2023-07-28T12:56:50;21.53;83.38
47757;SHT35;22147;52.388;13.390;2023-07-28T12:59:40;21.59;84.24
47757;SHT35;22147;52.388;13.390;2023-07-28T13:02:13;21.81;84.83
47757;SHT35;22147;52.388;13.390;2023-07-28T13:04:43;22.00;83.22
47757;SHT35;22147;52.388;13.390;2023-07-28T13:07:14;22.20;82.90
47757;SHT35;22147;52.388;13.390;2023-07-28T13:09:47;22.07;82.79
47757;SHT35;22147;52.388;13.390;2023-07-28T13:12:18;22.07;83.24
47757;SHT35;22147;52.388;13.390;2023-07-28T13:14:51;22.01;84.00
47757;SHT35;22147;52.388;13.390;2023-07-28T13:17:21;22.05;82.73
47757;SHT35;22147;52.388;13.390;2023-07-28T13:19:51;21.98;82.78
47757;SHT35;22147;52.388;13.390;2023-07-28T13:22:22;21.88;82.76
47757;SHT35;22147;52.388;13.390;2023-07-28T13:24:53;21.81;82.03
47757;SHT35;22147;52.388;13.390;2023-07-28T13:27:24;21.73;82.25
47757;SHT35;22147;52.388;13.390;2023-07-28T13:29:54;21.70;82.56
47757;SHT35;22147;52.388;13.390;2023-07-28T13:32:25;21.69;82.74
47757;SHT35;22147;52.388;13.390;2023-07-28T13:34:56;21.80;82.78
47757;SHT35;22147;52.388;13.390;2023-07-28T13:37:26;21.92;82.73
47757;SHT35;22147;52.388;13.390;2023-07-28T13:39:57;21.97;82.59
47757;SHT35;22147;52.388;13.390;2023-07-28T13:42:27;22.00;83.26
47757;SHT35;22147;52.388;13.390;2023-07-28T13:44:57;21.80;83.12
47757;SHT35;22147;52.388;13.390;2023-07-28T13:47:28;21.64;83.27
47757;SHT35;22147;52.388;13.390;2023-07-28T13:49:58;21.49;83.41
47757;SHT35;22147;52.388;13.390;2023-07-28T13:52:29;21.47;83.96
47757;SHT35;22147;52.388;13.390;2023-07-28T13:55:00;21.83;84.05
47757;SHT35;22147;52.388;13.390;2023-07-28T13:57:34;22.25;82.55
47757;SHT35;22147;52.388;13.390;2023-07-28T14:00:05;22.49;81.11
47757;SHT35;22147;52.388;13.390;2023-07-28T14:02:40;22.55;81.00
47757;SHT35;22147;52.388;13.390;2023-07-28T14:05:10;22.48;80.68
47757;SHT35;22147;52.388;13.390;2023-07-28T14:07:41;22.39;81.83
47757;SHT35;22147;52.388;13.390;2023-07-28T14:10:12;22.33;80.98
47757;SHT35;22147;52.388;13.390;2023-07-28T14:12:40;22.33;80.74
47757;SHT35;22147;52.388;13.390;2023-07-28T14:15:09;22.29;81.95
47757;SHT35;22147;52.388;13.390;2023-07-28T14:17:37;22.29;82.13
47757;SHT35;22147;52.388;13.390;2023-07-28T14:20:06;22.39;81.70
47757;SHT35;22147;52.388;13.390;2023-07-28T14:22:33;22.68;81.88
47757;SHT35;22147;52.388;13.390;2023-07-28T14:25:02;23.26;80.91
47757;SHT35;22147;52.388;13.390;2023-07-28T14:27:30;23.88;75.20
47757;SHT35;22147;52.388;13.390;2023-07-28T14:29:59;24.16;75.04
47757;SHT35;22147;52.388;13.390;2023-07-28T14:32:27;24.59;75.90
47757;SHT35;22147;52.388;13.390;2023-07-28T14:34:55;25.05;72.79
47757;SHT35;22147;52.388;13.390;2023-07-28T14:37:24;25.23;70.73
47757;SHT35;22147;52.388;13.390;2023-07-28T14:39:52;24.99;71.49
47757;SHT35;22147;52.388;13.390;2023-07-28T14:42:21;24.54;71.93
47757;SHT35;22147;52.388;13.390;2023-07-28T14:44:49;24.22;72.75
47757;SHT35;22147;52.388;13.390;2023-07-28T14:47:18;23.79;73.89
47757;SHT35;22147;52.388;13.390;2023-07-28T14:49:46;23.65;74.80
47757;SHT35;22147;52.388;13.390;2023-07-28T14:52:14;23.71;74.90
47757;SHT35;22147;52.388;13.390;2023-07-28T14:54:43;23.76;74.13
47757;SHT35;22147;52.388;13.390;2023-07-28T14:57:11;24.09;74.59
47757;SHT35;22147;52.388;13.390;2023-07-28T15:00:03;24.75;72.02
47757;SHT35;22147;52.388;13.390;2023-07-28T15:02:36;24.98;71.10
47757;SHT35;22147;52.388;13.390;2023-07-28T15:05:07;24.87;70.01
47757;SHT35;22147;52.388;13.390;2023-07-28T15:07:37;24.72;71.25
47757;SHT35;22147;52.388;13.390;2023-07-28T15:10:07;24.19;73.18
47757;SHT35;22147;52.388;13.390;2023-07-28T15:12:38;23.75;73.29
47757;SHT35;22147;52.388;13.390;2023-07-28T15:15:09;23.48;75.07
47757;SHT35;22147;52.388;13.390;2023-07-28T15:17:39;23.38;74.24
47757;SHT35;22147;52.388;13.390;2023-07-28T15:20:10;23.23;75.09
47757;SHT35;22147;52.388;13.390;2023-07-28T15:22:40;23.13;75.84
47757;SHT35;22147;52.388;13.390;2023-07-28T15:25:10;23.03;76.70
47757;SHT35;22147;52.388;13.390;2023-07-28T15:27:41;22.93;76.42
47757;SHT35;22147;52.388;13.390;2023-07-28T15:30:13;22.65;76.76
47757;SHT35;22147;52.388;13.390;2023-07-28T15:32:47;22.48;77.38
47757;SHT35;22147;52.388;13.390;2023-07-28T15:35:18;22.32;78.17
47757;SHT35;22147;52.388;13.390;2023-07-28T15:37:48;22.21;79.43
47757;SHT35;22147;52.388;13.390;2023-07-28T15:40:18;22.11;80.36
47757;SHT35;22147;52.388;13.390;2023-07-28T15:42:48;21.97;80.61
47757;SHT35;22147;52.388;13.390;2023-07-28T15:45:18;21.85;81.82